createdAt,value
2018-01-08T00:00:13.823Z,96862.91
2018-01-08T00:02:43.114Z,96861.98
2018-01-08T00:05:08.932Z,96861.56
2018-01-08T00:07:38.259Z,96864.10
2018-01-08T00:10:04.074Z,96865.16
2018-01-08T00:12:32.126Z,96862.63
2018-01-08T00:14:57.945Z,96865.12
2018-01-08T00:17:26.771Z,96866.78
2018-01-08T00:19:52.564Z,96860.21
2018-01-08T00:22:18.446Z,96857.41
2018-01-08T00:24:44.271Z,96860.02
2018-01-08T00:27:10.107Z,96857.73
2018-01-08T00:29:38.180Z,96863.08
2018-01-08T00:32:04.026Z,96865.28
2018-01-08T00:34:30.609Z,96865.28
2018-01-08T00:36:56.458Z,96855.73
2018-01-08T00:39:22.279Z,96848.58
2018-01-08T00:41:51.541Z,96846.73
2018-01-08T00:44:17.402Z,96841.77
2018-01-08T00:46:45.065Z,96851.15
2018-01-08T00:49:10.942Z,96847.70
2018-01-08T00:51:39.990Z,96853.25
2018-01-08T00:54:05.779Z,96846.98
2018-01-08T00:56:34.936Z,96846.47
2018-01-08T00:59:00.759Z,96842.03
2018-01-08T01:01:30.410Z,96839.88
2018-01-08T01:03:56.237Z,96843.98
2018-01-08T01:06:25.422Z,96843.39
2018-01-08T01:08:51.245Z,96849.05
2018-01-08T01:11:20.301Z,96845.16
2018-01-08T01:13:46.121Z,96844.67
2018-01-08T01:16:13.287Z,96853.35
2018-01-08T01:18:39.081Z,96851.69
2018-01-08T01:21:08.664Z,96848.55
2018-01-08T01:23:34.496Z,96856.16
2018-01-08T01:26:03.433Z,96857.47
2018-01-08T01:28:29.280Z,96854.33
2018-01-08T01:30:57.485Z,96863.82
2018-01-08T01:33:23.290Z,96856.91
2018-01-08T01:35:49.091Z,96853.79
2018-01-08T01:38:14.923Z,96855.94
2018-01-08T01:40:40.757Z,96853.36
2018-01-08T01:43:09.995Z,96863.02
2018-01-08T01:45:35.813Z,96861.52
2018-01-08T01:48:03.835Z,96856.15
2018-01-08T01:50:29.655Z,96854.97
2018-01-08T01:52:58.056Z,96848.23
2018-01-08T01:55:23.947Z,96855.57
2018-01-08T02:00:20.709Z,96863.28
2018-01-08T02:02:49.790Z,96865.51
2018-01-08T02:05:15.647Z,96865.40
2018-01-08T02:07:43.516Z,96870.56
2018-01-08T02:10:09.376Z,96870.08
2018-01-08T02:12:35.195Z,96872.35
2018-01-08T02:15:01.058Z,96873.48
2018-01-08T02:17:26.891Z,96867.60
2018-01-08T02:19:55.984Z,96870.25
2018-01-08T02:22:21.748Z,96877.96
2018-01-08T02:24:50.946Z,96878.06
2018-01-08T02:27:16.813Z,96881.16
2018-01-08T02:29:43.930Z,96887.52
2018-01-08T02:32:09.762Z,96894.38
2018-01-08T02:34:38.496Z,96890.12
2018-01-08T02:37:04.352Z,96894.00
2018-01-08T02:39:33.245Z,96894.38
2018-01-08T02:41:59.062Z,96898.47
2018-01-08T02:44:28.061Z,96893.95
2018-01-08T02:46:53.856Z,96899.77
2018-01-08T02:49:19.709Z,96906.83
2018-01-08T02:51:45.491Z,96901.77
2018-01-08T02:54:11.342Z,96899.56
2018-01-08T02:56:41.093Z,96896.53
2018-01-08T02:59:06.937Z,96907.98
2018-01-08T03:01:36.293Z,96902.67
2018-01-08T03:04:02.098Z,96905.17
2018-01-08T03:06:29.736Z,96907.09
2018-01-08T03:08:55.578Z,96913.91
2018-01-08T03:11:24.480Z,96916.06
2018-01-08T03:13:50.271Z,96914.01
2018-01-08T03:16:19.654Z,96911.65
2018-01-08T03:18:45.474Z,96913.69
2018-01-08T03:21:14.513Z,96915.58
2018-01-08T03:23:40.328Z,96912.34
2018-01-08T03:26:06.152Z,96913.53
2018-01-08T03:28:31.977Z,96914.12
2018-01-08T03:30:57.812Z,96905.59
2018-01-08T03:33:25.108Z,96905.17
2018-01-08T03:35:50.948Z,96911.54
2018-01-08T03:38:19.696Z,96916.81
2018-01-08T03:40:45.518Z,96922.37
2018-01-08T03:43:14.996Z,96924.32
2018-01-08T03:45:40.821Z,96927.57
2018-01-08T03:48:10.173Z,96921.25
2018-01-08T03:50:35.997Z,96921.73
2018-01-08T03:53:04.179Z,96923.08
2018-01-08T03:55:30.038Z,96918.33
2018-01-08T03:57:59.258Z,96921.84
2018-01-08T04:00:25.078Z,96913.96
2018-01-08T04:02:50.934Z,96907.42
2018-01-08T04:05:16.788Z,96902.36
2018-01-08T04:07:42.645Z,96909.14
2018-01-08T04:10:10.655Z,96910.34
2018-01-08T04:12:36.463Z,96910.44
2018-01-08T04:15:05.831Z,96909.14
2018-01-08T04:17:31.644Z,96918.09
2018-01-08T04:20:00.650Z,96912.60
2018-01-08T04:22:26.500Z,96913.69
2018-01-08T04:24:55.730Z,96910.12
2018-01-08T04:27:21.571Z,96912.44
2018-01-08T04:29:49.317Z,96909.48
2018-01-08T04:32:15.161Z,96907.16
2018-01-08T04:34:44.444Z,96903.06
2018-01-08T04:37:10.261Z,96905.22
2018-01-08T04:39:36.113Z,96915.41
2018-01-08T04:42:01.918Z,96916.98
2018-01-08T04:44:27.717Z,96910.92
2018-01-08T04:46:55.389Z,96904.13
2018-01-08T04:49:21.209Z,96905.27
2018-01-08T04:54:17.906Z,96914.51
2018-01-08T04:56:46.923Z,96913.69
2018-01-08T04:59:12.779Z,96918.72
2018-01-08T05:01:40.280Z,96918.59
2018-01-08T05:04:06.143Z,96918.22
2018-01-08T05:06:35.824Z,96916.02
2018-01-08T05:09:01.721Z,96920.27
2018-01-08T05:11:30.600Z,96914.50
2018-01-08T05:13:56.409Z,96907.44
2018-01-08T05:16:22.249Z,96909.76
2018-01-08T05:18:48.080Z,96912.39
2018-01-08T05:21:13.926Z,96908.14
2018-01-08T05:23:41.281Z,96905.39
2018-01-08T05:26:07.141Z,96913.75
2018-01-08T05:28:36.420Z,96903.92
2018-01-08T05:31:02.197Z,96910.03
2018-01-08T05:33:30.226Z,96909.92
2018-01-08T05:35:56.064Z,96904.95
2018-01-08T05:38:25.142Z,96890.71
2018-01-08T05:40:50.978Z,96904.47
2018-01-08T05:43:19.665Z,96905.05
2018-01-08T05:45:45.537Z,96909.52
2018-01-08T05:48:15.079Z,96908.34
2018-01-08T05:50:41.081Z,96903.45
2018-01-08T05:53:06.971Z,96902.69
2018-01-08T05:55:32.782Z,96912.23
2018-01-08T05:57:58.582Z,96907.05
2018-01-08T06:00:26.942Z,96908.72
2018-01-08T06:02:52.778Z,96903.81
2018-01-08T06:05:20.761Z,96906.15
2018-01-08T06:07:46.621Z,96896.00
2018-01-08T06:10:15.419Z,96896.16
2018-01-08T06:12:41.288Z,96899.72
2018-01-08T06:17:37.960Z,96891.67
2018-01-08T06:20:05.407Z,96889.57
2018-01-08T06:22:31.209Z,96885.52
2018-01-08T06:24:59.646Z,96882.44
2018-01-08T06:27:25.500Z,96889.02
2018-01-08T06:29:51.296Z,96886.06
2018-01-08T06:32:17.133Z,96888.70
2018-01-08T06:34:42.949Z,96894.42
2018-01-08T06:37:11.820Z,96887.94
2018-01-08T06:39:37.624Z,96894.66
2018-01-08T06:42:06.981Z,96887.84
2018-01-08T06:44:32.798Z,96895.39
2018-01-08T06:47:01.869Z,96894.25
2018-01-08T06:49:27.733Z,96893.67
2018-01-08T06:51:55.764Z,96896.91
2018-01-08T06:54:21.609Z,96894.79
2018-01-08T06:56:50.877Z,96901.42
2018-01-08T06:59:16.730Z,96899.70
2018-01-08T07:01:45.167Z,96898.47
2018-01-08T07:04:10.994Z,96895.28
2018-01-08T07:06:36.853Z,96900.02
2018-01-08T07:09:02.704Z,96895.65
2018-01-08T07:11:28.529Z,96902.45
2018-01-08T07:13:58.034Z,96910.45
2018-01-08T07:16:23.872Z,96904.89
2018-01-08T07:18:53.074Z,96913.63
2018-01-08T07:21:18.877Z,96909.84
2018-01-08T07:23:46.428Z,96909.91
2018-01-08T07:26:12.290Z,96911.61
2018-01-08T07:28:41.652Z,96906.06
2018-01-08T07:31:07.467Z,96907.53
2018-01-08T07:33:36.644Z,96907.91
2018-01-08T07:36:02.483Z,96904.56
2018-01-08T07:38:31.843Z,96907.16
2018-01-08T07:40:57.668Z,96910.02
2018-01-08T07:43:23.520Z,96901.59
2018-01-08T07:45:49.384Z,96911.08
2018-01-08T07:48:15.173Z,96907.14
2018-01-08T07:50:42.898Z,96914.22
2018-01-08T07:53:08.702Z,96918.16
2018-01-08T07:55:38.211Z,96919.78
2018-01-08T07:58:04.024Z,96914.70
2018-01-08T08:00:33.073Z,96911.42
2018-01-08T08:02:58.953Z,96916.88
2018-01-08T08:05:26.334Z,96907.20
2018-01-08T08:07:52.162Z,96904.24
2018-01-08T08:10:21.115Z,96907.81
2018-01-08T08:12:46.966Z,96909.31
2018-01-08T08:15:16.586Z,96921.52
2018-01-08T08:17:42.421Z,96920.48
2018-01-08T08:20:08.220Z,96919.68
2018-01-08T08:22:34.044Z,96918.77
2018-01-08T08:24:59.909Z,96920.66
2018-01-08T08:27:28.846Z,96917.91
2018-01-08T08:29:54.646Z,96922.48
2018-01-08T08:32:23.967Z,96924.77
2018-01-08T08:34:49.802Z,96929.66
2018-01-08T08:37:17.027Z,96932.84
2018-01-08T08:39:42.842Z,96935.81
2018-01-08T08:42:13.137Z,96934.26
2018-01-08T08:44:38.978Z,96927.08
2018-01-08T08:47:06.466Z,96929.77
2018-01-08T08:49:32.319Z,96923.39
2018-01-08T08:52:00.992Z,96926.32
2018-01-08T08:54:26.813Z,96921.91
2018-01-08T08:56:52.607Z,96926.91
2018-01-08T08:59:18.426Z,96920.83
2018-01-08T09:01:44.306Z,96911.92
2018-01-08T09:04:12.877Z,96909.10
2018-01-08T09:06:38.718Z,96918.33
2018-01-08T09:09:07.162Z,96917.31
2018-01-08T09:11:33.006Z,96910.08
2018-01-08T09:16:29.647Z,96927.13
2018-01-08T09:18:57.312Z,96933.83
2018-01-08T09:21:23.149Z,96935.33
2018-01-08T09:23:51.446Z,96933.33
2018-01-08T09:26:17.306Z,96924.59
2018-01-08T09:31:13.869Z,96925.52
2018-01-08T09:33:39.714Z,96925.79
2018-01-08T09:36:05.550Z,96925.24
2018-01-08T09:38:31.397Z,96924.86
2018-01-08T09:40:58.979Z,96923.08
2018-01-08T09:43:24.796Z,96925.02
2018-01-08T09:45:54.234Z,96928.14
2018-01-08T09:48:20.008Z,96927.83
2018-01-08T09:50:49.372Z,96929.56
2018-01-08T09:53:15.181Z,96932.79
2018-01-08T09:55:42.517Z,96926.03
2018-01-08T09:58:08.332Z,96919.98
2018-01-08T10:00:37.473Z,96921.18
2018-01-08T10:03:15.656Z,96929.16
2018-01-08T10:05:53.891Z,96930.30
2018-01-08T10:08:31.902Z,96935.92
2018-01-08T10:11:10.164Z,96935.33
2018-01-08T10:13:48.259Z,96931.04
2018-01-08T10:16:26.416Z,96930.03
2018-01-08T10:21:58.150Z,96928.32
2018-01-08T10:24:23.948Z,96920.92
2018-01-08T10:26:49.736Z,96922.44
2018-01-08T10:29:15.531Z,96917.21
2018-01-08T10:31:41.370Z,96919.84
2018-01-08T10:34:07.202Z,96913.97
2018-01-08T10:36:33.033Z,96915.31
2018-01-08T10:38:58.846Z,96908.83
2018-01-08T10:41:30.886Z,96905.85
2018-01-08T10:44:02.740Z,96906.36
2018-01-08T10:46:34.748Z,96903.66
2018-01-08T10:49:06.778Z,96905.16
2018-01-08T10:51:38.689Z,96903.33
2018-01-08T10:54:04.477Z,96900.95
2018-01-08T10:56:30.305Z,96897.23
2018-01-08T10:58:56.215Z,96893.66
2018-01-08T11:01:28.067Z,96889.25
2018-01-08T11:03:59.951Z,96887.52
2018-01-08T11:06:25.785Z,96877.66
2018-01-08T11:08:51.618Z,96878.73
2018-01-08T11:11:17.452Z,96879.05
2018-01-08T11:13:43.246Z,96871.66
2018-01-08T11:16:09.094Z,96874.63
2018-01-08T11:18:34.950Z,96858.88
2018-01-08T11:21:00.840Z,96853.52
2018-01-08T11:23:26.707Z,96855.53
2018-01-08T11:25:52.566Z,96858.59
2018-01-08T11:28:18.404Z,96848.78
2018-01-08T11:30:44.250Z,96844.48
2018-01-08T11:33:10.094Z,96847.66
2018-01-08T11:35:35.969Z,96851.03
2018-01-08T11:38:01.871Z,96838.30
2018-01-08T11:40:27.718Z,96831.53
2018-01-08T11:42:53.582Z,96839.67
2018-01-08T11:45:19.461Z,96830.73
2018-01-08T11:47:45.318Z,96828.16
2018-01-08T11:50:11.160Z,96829.86
2018-01-08T11:52:36.989Z,96825.21
2018-01-08T11:55:02.810Z,96817.13
2018-01-08T11:57:28.658Z,96805.27
2018-01-08T11:59:54.479Z,96800.30
2018-01-08T12:02:20.376Z,96806.17
2018-01-08T12:04:46.215Z,96787.55
2018-01-08T12:07:12.078Z,96781.09
2018-01-08T12:09:37.888Z,96786.48
2018-01-08T12:12:03.742Z,96784.80
2018-01-08T12:14:29.636Z,96784.27
2018-01-08T12:16:55.448Z,96795.31
2018-01-08T12:19:21.298Z,96799.30
2018-01-08T12:21:47.100Z,96794.25
2018-01-08T12:24:12.905Z,96793.31
2018-01-08T12:26:38.696Z,96788.17
2018-01-08T12:29:04.519Z,96780.14
2018-01-08T12:31:30.329Z,96785.98
2018-01-08T12:33:56.193Z,96783.06
2018-01-08T12:36:22.040Z,96784.72
2018-01-08T12:38:47.868Z,96783.61
2018-01-08T12:41:13.707Z,96785.65
2018-01-08T12:43:39.580Z,96778.24
2018-01-08T12:46:05.397Z,96774.02
2018-01-08T12:48:31.236Z,96764.38
2018-01-08T12:50:57.101Z,96761.59
2018-01-08T12:53:22.953Z,96762.86
2018-01-08T12:55:48.810Z,96762.46
2018-01-08T12:58:14.648Z,96756.18
2018-01-08T13:00:40.515Z,96744.03
2018-01-08T13:03:06.412Z,96747.01
2018-01-08T13:05:35.402Z,96749.29
2018-01-08T13:08:01.215Z,96758.31
2018-01-08T13:10:30.387Z,96754.19
2018-01-08T13:12:56.229Z,96750.27
2018-01-08T13:15:23.927Z,96754.77
2018-01-08T13:17:49.746Z,96759.05
2018-01-08T13:22:46.320Z,96753.80
2018-01-08T13:25:13.680Z,96752.55
2018-01-08T13:27:39.530Z,96742.84
2018-01-08T13:30:08.932Z,96745.89
2018-01-08T13:32:34.765Z,96745.96
2018-01-08T13:35:00.650Z,96748.84
2018-01-08T13:37:26.529Z,96746.14
2018-01-08T13:39:52.373Z,96741.88
2018-01-08T13:42:19.978Z,96739.84
2018-01-08T13:44:45.848Z,96737.61
2018-01-08T13:47:14.564Z,96736.45
2018-01-08T13:49:40.402Z,96739.33
2018-01-08T13:52:09.067Z,96736.25
2018-01-08T13:54:34.966Z,96744.28
2018-01-08T13:59:31.821Z,96752.88
2018-01-08T14:01:59.003Z,96755.02
2018-01-08T14:04:24.825Z,96748.66
2018-01-08T14:06:54.375Z,96756.01
2018-01-08T14:09:20.283Z,96750.76
2018-01-08T14:11:46.140Z,96745.83
2018-01-08T14:14:11.973Z,96742.54
2018-01-08T14:16:37.887Z,96747.90
2018-01-08T14:19:07.010Z,96751.92
2018-01-08T14:21:32.830Z,96752.74
2018-01-08T14:24:01.982Z,96746.79
2018-01-08T14:26:27.830Z,96752.11
2018-01-08T14:28:55.009Z,96745.06
2018-01-08T14:31:20.819Z,96744.45
2018-01-08T14:33:50.073Z,96740.12
2018-01-08T14:36:15.884Z,96740.88
2018-01-08T14:38:44.927Z,96735.34
2018-01-08T14:41:10.752Z,96736.28
2018-01-08T14:43:40.414Z,96740.05
2018-01-08T14:46:06.258Z,96735.48
2018-01-08T14:48:32.076Z,96728.39
2018-01-08T14:50:57.974Z,96738.28
2018-01-08T14:53:23.821Z,96740.28
2018-01-08T14:55:50.561Z,96734.83
2018-01-08T14:58:16.384Z,96743.31
2018-01-08T15:00:45.213Z,96744.67
2018-01-08T15:03:11.093Z,96752.02
2018-01-08T15:05:39.949Z,96747.80
2018-01-08T15:08:05.761Z,96748.95
2018-01-08T15:10:35.214Z,96761.53
2018-01-08T15:13:01.086Z,96767.84
2018-01-08T15:15:30.418Z,96759.63
2018-01-08T15:17:56.277Z,96750.03
2018-01-08T15:20:25.498Z,96749.62
2018-01-08T15:22:51.312Z,96748.62
2018-01-08T15:25:17.186Z,96746.29
2018-01-08T15:27:43.024Z,96746.70
2018-01-08T15:30:08.909Z,96747.99
2018-01-08T15:32:36.701Z,96750.75
2018-01-08T15:35:02.503Z,96748.20
2018-01-08T15:37:32.242Z,96740.07
2018-01-08T15:39:58.079Z,96742.95
2018-01-08T15:42:25.562Z,96739.38
2018-01-08T15:44:51.414Z,96740.52
2018-01-08T15:47:20.063Z,96741.09
2018-01-08T15:50:49.108Z,96741.61
2018-01-08T15:53:14.978Z,96744.46
2018-01-08T15:55:40.796Z,96751.47
2018-01-08T15:58:06.638Z,96751.46
2018-01-08T16:00:32.489Z,96752.67
2018-01-08T16:02:58.318Z,96749.22
2018-01-08T16:05:24.163Z,96746.30
2018-01-08T16:07:49.978Z,96742.52
2018-01-08T16:10:15.824Z,96746.02
2018-01-08T16:12:41.666Z,96752.38
2018-01-08T16:15:07.518Z,96741.57
2018-01-08T16:17:33.358Z,96738.77
2018-01-08T16:19:59.186Z,96737.06
2018-01-08T16:22:25.055Z,96732.30
2018-01-08T16:24:50.906Z,96745.25
2018-01-08T16:27:16.715Z,96739.86
2018-01-08T16:29:42.522Z,96739.86
2018-01-08T16:32:08.344Z,96730.90
2018-01-08T16:34:34.176Z,96729.02
2018-01-08T16:37:00.031Z,96726.59
2018-01-08T16:39:25.826Z,96729.29
2018-01-08T16:41:51.674Z,96732.31
2018-01-08T16:44:17.509Z,96723.42
2018-01-08T16:46:43.340Z,96729.94
2018-01-08T16:49:09.142Z,96724.22
2018-01-08T16:51:35.058Z,96721.41
2018-01-08T16:54:00.861Z,96723.73
2018-01-08T16:56:26.710Z,96720.44
2018-01-08T16:58:52.544Z,96728.57
2018-01-08T17:01:18.405Z,96722.02
2018-01-08T17:03:50.226Z,96717.66
2018-01-08T17:06:16.034Z,96712.37
2018-01-08T17:08:41.888Z,96715.53
2018-01-08T17:11:07.750Z,96715.03
2018-01-08T17:13:33.615Z,96714.36
2018-01-08T17:15:59.479Z,96713.64
2018-01-08T17:18:25.276Z,96717.47
2018-01-08T17:20:51.089Z,96720.33
2018-01-08T17:23:16.895Z,96717.36
2018-01-08T17:25:42.701Z,96725.08
2018-01-08T17:28:08.642Z,96726.38
2018-01-08T17:30:34.420Z,96725.42
2018-01-08T17:33:00.237Z,96722.12
2018-01-08T17:35:26.076Z,96723.31
2018-01-08T17:37:51.926Z,96718.34
2018-01-08T17:40:17.758Z,96724.16
2018-01-08T17:42:43.572Z,96725.72
2018-01-08T17:45:09.397Z,96732.23
2018-01-08T17:47:35.245Z,96725.08
2018-01-08T17:50:01.154Z,96723.24
2018-01-08T17:52:26.980Z,96726.06
2018-01-08T17:54:52.754Z,96719.27
2018-01-08T17:57:18.629Z,96718.41
2018-01-08T17:59:44.417Z,96727.45
2018-01-08T18:02:10.233Z,96720.94
2018-01-08T18:04:36.098Z,96712.58
2018-01-08T18:07:01.914Z,96716.77
2018-01-08T18:09:27.716Z,96721.86
2018-01-08T18:11:53.570Z,96714.67
2018-01-08T18:14:21.163Z,96708.11
2018-01-08T18:16:46.977Z,96708.20
2018-01-08T18:21:43.615Z,96696.44
2018-01-08T18:24:12.566Z,96700.61
2018-01-08T18:26:38.440Z,96693.06
2018-01-08T18:29:04.226Z,96690.59
2018-01-08T18:31:30.075Z,96700.73
2018-01-08T18:33:55.932Z,96696.56
2018-01-08T18:36:23.101Z,96691.68
2018-01-08T18:38:48.929Z,96678.03
2018-01-08T18:41:17.056Z,96680.56
2018-01-08T18:43:42.866Z,96684.73
2018-01-08T18:46:12.548Z,96685.80
2018-01-08T18:48:38.451Z,96683.53
2018-01-08T18:51:07.885Z,96685.04
2018-01-08T18:53:33.692Z,96683.32
2018-01-08T18:56:01.224Z,96695.19
2018-01-08T18:58:27.073Z,96698.90
2018-01-08T19:00:56.553Z,96695.55
2018-01-08T19:03:22.369Z,96691.98
2018-01-08T19:05:48.211Z,96684.92
2018-01-08T19:08:14.067Z,96678.30
2018-01-08T19:10:39.935Z,96670.98
2018-01-08T19:13:07.705Z,96675.46
2018-01-08T19:15:33.598Z,96664.56
2018-01-08T19:18:02.434Z,96669.34
2018-01-08T19:20:28.294Z,96676.52
2018-01-08T19:22:57.283Z,96679.97
2018-01-08T19:25:23.188Z,96675.40
2018-01-08T19:27:52.703Z,96672.25
2018-01-08T19:30:18.605Z,96672.64
2018-01-08T19:32:47.598Z,96661.31
2018-01-08T19:35:13.510Z,96662.27
2018-01-08T19:37:41.491Z,96660.43
2018-01-08T19:40:07.377Z,96657.29
2018-01-08T19:42:33.277Z,96656.91
2018-01-08T19:44:59.139Z,96662.11
2018-01-08T19:47:25.021Z,96656.33
2018-01-08T19:49:53.982Z,96654.34
2018-01-08T19:52:19.884Z,96650.93
2018-01-08T19:54:49.270Z,96650.99
2018-01-08T19:57:15.210Z,96659.23
2018-01-08T19:59:44.403Z,96656.33
2018-01-08T20:02:10.288Z,96652.20
2018-01-08T20:04:37.293Z,96650.22
2018-01-08T20:07:03.173Z,96647.52
2018-01-08T20:09:32.929Z,96646.27
2018-01-08T20:11:58.814Z,96650.17
2018-01-08T20:14:28.240Z,96645.10
2018-01-08T20:16:54.126Z,96643.96
2018-01-08T20:19:19.993Z,96633.41
2018-01-08T20:21:45.870Z,96628.92
2018-01-08T20:24:11.712Z,96627.91
2018-01-08T20:26:39.060Z,96619.96
2018-01-08T20:29:04.935Z,96609.07
2018-01-08T20:31:34.086Z,96615.34
2018-01-08T20:33:59.983Z,96605.46
2018-01-08T20:36:27.845Z,96605.46
2018-01-08T20:38:53.740Z,96605.70
2018-01-08T20:41:23.581Z,96593.95
2018-01-08T20:43:49.503Z,96596.56
2018-01-08T20:46:17.084Z,96603.38
2018-01-08T20:48:42.968Z,96594.00
2018-01-08T20:51:12.366Z,96598.73
2018-01-08T20:53:38.256Z,96596.73
2018-01-08T20:56:04.130Z,96607.03
2018-01-08T20:58:30.008Z,96606.48
2018-01-08T21:00:55.884Z,96600.27
2018-01-08T21:03:23.997Z,96593.89
2018-01-08T21:05:49.921Z,96582.88
2018-01-08T21:08:19.194Z,96594.45
2018-01-08T21:10:45.017Z,96575.86
2018-01-08T21:13:14.069Z,96568.59
2018-01-08T21:15:39.953Z,96568.55
2018-01-08T21:18:07.665Z,96562.41
2018-01-08T21:20:33.516Z,96575.07
2018-01-08T21:23:00.074Z,96562.21
2018-01-08T21:25:27.480Z,96558.33
2018-01-08T21:27:53.346Z,96551.22
2018-01-08T21:30:19.565Z,96555.37
2018-01-08T21:32:45.402Z,96541.86
2018-01-08T21:35:14.339Z,96548.80
2018-01-08T21:37:40.176Z,96548.80
2018-01-08T21:40:12.877Z,96540.14
2018-01-08T21:42:38.685Z,96540.51
2018-01-08T21:45:04.523Z,96533.02
2018-01-08T21:47:30.340Z,96529.80
2018-01-08T21:49:59.978Z,96533.30
2018-01-08T21:52:25.846Z,96539.05
2018-01-08T21:54:55.160Z,96530.83
2018-01-08T21:57:21.014Z,96534.11
2018-01-08T21:59:48.162Z,96527.22
2018-01-08T22:02:13.955Z,96530.50
2018-01-08T22:04:42.427Z,96530.12
2018-01-08T22:07:08.299Z,96527.43
2018-01-08T22:09:34.150Z,96528.13
2018-01-08T22:12:00.003Z,96534.47
2018-01-08T22:14:25.841Z,96532.97
2018-01-08T22:16:55.270Z,96526.56
2018-01-08T22:19:21.061Z,96516.71
2018-01-08T22:21:49.060Z,96510.43
2018-01-08T22:24:14.919Z,96503.64
2018-01-08T22:26:43.831Z,96502.54
2018-01-08T22:29:09.676Z,96500.15
2018-01-08T22:31:38.954Z,96498.75
2018-01-08T22:34:04.830Z,96498.09
2018-01-08T22:36:33.870Z,96497.21
2018-01-08T22:38:59.718Z,96498.41
2018-01-08T22:41:27.990Z,96487.30
2018-01-08T22:43:53.794Z,96482.73
2018-01-08T22:46:19.634Z,96483.53
2018-01-08T22:48:45.438Z,96482.63
2018-01-08T22:51:11.278Z,96474.92
2018-01-08T22:53:39.791Z,96479.71
2018-01-08T22:56:05.606Z,96472.66
2018-01-08T22:58:34.987Z,96469.92
2018-01-08T23:01:00.812Z,96470.06
2018-01-08T23:03:30.501Z,96458.24
2018-01-08T23:05:56.330Z,96458.94
2018-01-08T23:08:25.206Z,96455.88
2018-01-08T23:10:51.029Z,96458.52
2018-01-08T23:13:18.617Z,96450.50
2018-01-08T23:15:44.416Z,96442.92
2018-01-08T23:18:14.537Z,96435.82
2018-01-08T23:20:40.349Z,96440.18
2018-01-08T23:23:06.206Z,96452.66
2018-01-08T23:25:32.055Z,96442.98
2018-01-08T23:27:57.862Z,96427.60
2018-01-08T23:30:25.141Z,96419.92
2018-01-08T23:32:50.996Z,96408.20
2018-01-08T23:35:20.462Z,96397.88
2018-01-08T23:37:46.414Z,96389.52
2018-01-08T23:40:16.188Z,96385.08
2018-01-08T23:42:42.047Z,96377.22
2018-01-08T23:45:09.149Z,96380.06
2018-01-08T23:47:34.989Z,96380.33
2018-01-08T23:50:04.376Z,96384.42
2018-01-08T23:52:30.270Z,96373.36
2018-01-08T23:54:59.970Z,96370.70
2018-01-08T23:57:25.822Z,96357.70
2018-01-08T23:59:51.679Z,96368.13
